sensor_id;sensor_type;location;lat;lon;timestamp;P1;durP1;ratioP1;P2;durP2;ratioP2
20454;SDS011;10386;54.314;10.022;2023-07-13T00:00:36;14.10;;;3.73;;
20454;SDS011;10386;54.314;10.022;2023-07-13T00:03:03;9.37;;;3.43;;
20454;SDS011;10386;54.314;10.022;2023-07-13T00:05:31;5.77;;;3.07;;
20454;SDS011;10386;54.314;10.022;2023-07-13T00:07:58;5.87;;;3.00;;
20454;SDS011;10386;54.314;10.022;2023-07-13T00:10:25;8.53;;;2.97;;
20454;SDS011;10386;54.314;10.022;2023-07-13T00:12:52;10.33;;;3.30;;
20454;SDS011;10386;54.314;10.022;2023-07-13T00:15:22;4.20;;;3.37;;
20454;SDS011;10386;54.314;10.022;2023-07-13T00:17:52;8.57;;;3.00;;
20454;SDS011;10386;54.314;10.022;2023-07-13T00:20:21;8.00;;;3.07;;
20454;SDS011;10386;54.314;10.022;2023-07-13T00:22:49;10.67;;;3.77;;
20454;SDS011;10386;54.314;10.022;2023-07-13T00:25:16;6.57;;;3.50;;
20454;SDS011;10386;54.314;10.022;2023-07-13T00:27:43;6.23;;;3.43;;
20454;SDS011;10386;54.314;10.022;2023-07-13T00:30:10;13.70;;;3.50;;
20454;SDS011;10386;54.314;10.022;2023-07-13T00:32:38;7.13;;;3.40;;
20454;SDS011;10386;54.314;10.022;2023-07-13T00:35:04;8.23;;;3.70;;
20454;SDS011;10386;54.314;10.022;2023-07-13T00:37:31;10.43;;;3.40;;
20454;SDS011;10386;54.314;10.022;2023-07-13T00:39:58;8.53;;;3.13;;
20454;SDS011;10386;54.314;10.022;2023-07-13T00:42:26;10.93;;;3.43;;
20454;SDS011;10386;54.314;10.022;2023-07-13T00:45:03;11.57;;;3.40;;
20454;SDS011;10386;54.314;10.022;2023-07-13T00:47:51;9.90;;;3.33;;
20454;SDS011;10386;54.314;10.022;2023-07-13T00:50:18;11.60;;;3.63;;
20454;SDS011;10386;54.314;10.022;2023-07-13T00:52:48;9.90;;;3.60;;
20454;SDS011;10386;54.314;10.022;2023-07-13T00:55:19;9.93;;;3.93;;
20454;SDS011;10386;54.314;10.022;2023-07-13T00:57:48;9.13;;;4.03;;
20454;SDS011;10386;54.314;10.022;2023-07-13T01:00:15;12.27;;;4.20;;
20454;SDS011;10386;54.314;10.022;2023-07-13T01:02:44;14.20;;;4.03;;
20454;SDS011;10386;54.314;10.022;2023-07-13T01:05:15;8.97;;;4.30;;
20454;SDS011;10386;54.314;10.022;2023-07-13T01:07:44;14.40;;;4.60;;
20454;SDS011;10386;54.314;10.022;2023-07-13T01:10:12;8.33;;;4.17;;
20454;SDS011;10386;54.314;10.022;2023-07-13T01:12:39;14.60;;;4.43;;
20454;SDS011;10386;54.314;10.022;2023-07-13T01:18:10;10.30;;;4.27;;
20454;SDS011;10386;54.314;10.022;2023-07-13T01:20:39;13.47;;;4.33;;
20454;SDS011;10386;54.314;10.022;2023-07-13T01:23:06;10.23;;;4.00;;
20454;SDS011;10386;54.314;10.022;2023-07-13T01:25:39;9.20;;;3.90;;
20454;SDS011;10386;54.314;10.022;2023-07-13T01:28:06;9.83;;;4.20;;
20454;SDS011;10386;54.314;10.022;2023-07-13T01:30:38;11.10;;;5.00;;
20454;SDS011;10386;54.314;10.022;2023-07-13T01:33:07;11.30;;;5.40;;
20454;SDS011;10386;54.314;10.022;2023-07-13T01:35:34;8.93;;;4.67;;
20454;SDS011;10386;54.314;10.022;2023-07-13T01:38:01;11.00;;;4.50;;
20454;SDS011;10386;54.314;10.022;2023-07-13T01:40:29;8.70;;;4.33;;
20454;SDS011;10386;54.314;10.022;2023-07-13T01:42:57;8.77;;;4.23;;
20454;SDS011;10386;54.314;10.022;2023-07-13T01:45:25;9.17;;;3.53;;
20454;SDS011;10386;54.314;10.022;2023-07-13T01:47:51;6.10;;;3.80;;
20454;SDS011;10386;54.314;10.022;2023-07-13T01:50:18;7.20;;;3.90;;
20454;SDS011;10386;54.314;10.022;2023-07-13T01:52:45;8.57;;;3.90;;
20454;SDS011;10386;54.314;10.022;2023-07-13T01:55:12;9.03;;;4.00;;
20454;SDS011;10386;54.314;10.022;2023-07-13T01:57:40;7.00;;;3.97;;
20454;SDS011;10386;54.314;10.022;2023-07-13T02:00:10;9.10;;;4.17;;
20454;SDS011;10386;54.314;10.022;2023-07-13T02:02:37;11.10;;;4.70;;
20454;SDS011;10386;54.314;10.022;2023-07-13T02:05:05;6.97;;;4.33;;
20454;SDS011;10386;54.314;10.022;2023-07-13T02:07:32;9.60;;;4.17;;
20454;SDS011;10386;54.314;10.022;2023-07-13T02:09:59;5.77;;;4.20;;
20454;SDS011;10386;54.314;10.022;2023-07-13T02:12:26;9.93;;;3.83;;
20454;SDS011;10386;54.314;10.022;2023-07-13T02:14:52;8.60;;;4.17;;
20454;SDS011;10386;54.314;10.022;2023-07-13T02:17:19;6.53;;;3.93;;
20454;SDS011;10386;54.314;10.022;2023-07-13T02:19:46;11.17;;;4.20;;
20454;SDS011;10386;54.314;10.022;2023-07-13T02:22:13;9.50;;;4.17;;
20454;SDS011;10386;54.314;10.022;2023-07-13T02:24:40;8.00;;;3.90;;
20454;SDS011;10386;54.314;10.022;2023-07-13T02:27:07;10.63;;;4.33;;
20454;SDS011;10386;54.314;10.022;2023-07-13T02:29:34;9.63;;;4.33;;
20454;SDS011;10386;54.314;10.022;2023-07-13T02:32:00;9.33;;;4.33;;
20454;SDS011;10386;54.314;10.022;2023-07-13T02:34:27;9.47;;;3.90;;
20454;SDS011;10386;54.314;10.022;2023-07-13T02:36:58;5.40;;;3.20;;
20454;SDS011;10386;54.314;10.022;2023-07-13T02:39:25;7.33;;;3.47;;
20454;SDS011;10386;54.314;10.022;2023-07-13T02:41:52;5.30;;;3.17;;
20454;SDS011;10386;54.314;10.022;2023-07-13T02:44:18;5.27;;;3.37;;
20454;SDS011;10386;54.314;10.022;2023-07-13T02:46:45;5.03;;;3.20;;
20454;SDS011;10386;54.314;10.022;2023-07-13T02:49:12;8.73;;;3.70;;
20454;SDS011;10386;54.314;10.022;2023-07-13T02:51:38;6.70;;;3.27;;
20454;SDS011;10386;54.314;10.022;2023-07-13T02:54:05;8.33;;;3.30;;
20454;SDS011;10386;54.314;10.022;2023-07-13T02:56:34;7.90;;;3.83;;
20454;SDS011;10386;54.314;10.022;2023-07-13T02:59:01;8.23;;;4.27;;
20454;SDS011;10386;54.314;10.022;2023-07-13T03:01:28;10.70;;;3.70;;
20454;SDS011;10386;54.314;10.022;2023-07-13T03:03:55;5.63;;;4.10;;
20454;SDS011;10386;54.314;10.022;2023-07-13T03:06:22;7.90;;;4.17;;
20454;SDS011;10386;54.314;10.022;2023-07-13T03:08:49;10.33;;;4.10;;
20454;SDS011;10386;54.314;10.022;2023-07-13T03:11:19;6.87;;;4.30;;
20454;SDS011;10386;54.314;10.022;2023-07-13T03:13:47;7.27;;;4.03;;
20454;SDS011;10386;54.314;10.022;2023-07-13T03:16:15;9.43;;;4.60;;
20454;SDS011;10386;54.314;10.022;2023-07-13T03:18:45;7.47;;;5.03;;
20454;SDS011;10386;54.314;10.022;2023-07-13T03:21:12;10.70;;;4.53;;
20454;SDS011;10386;54.314;10.022;2023-07-13T03:23:39;11.20;;;5.27;;
20454;SDS011;10386;54.314;10.022;2023-07-13T03:26:10;17.67;;;5.27;;
20454;SDS011;10386;54.314;10.022;2023-07-13T03:28:40;12.47;;;5.67;;
20454;SDS011;10386;54.314;10.022;2023-07-13T03:31:17;9.17;;;5.57;;
20454;SDS011;10386;54.314;10.022;2023-07-13T03:33:46;8.80;;;5.40;;
20454;SDS011;10386;54.314;10.022;2023-07-13T03:36:18;9.70;;;5.40;;
20454;SDS011;10386;54.314;10.022;2023-07-13T03:38:48;9.90;;;5.27;;
20454;SDS011;10386;54.314;10.022;2023-07-13T03:41:19;10.57;;;4.97;;
20454;SDS011;10386;54.314;10.022;2023-07-13T03:43:47;13.90;;;6.33;;
20454;SDS011;10386;54.314;10.022;2023-07-13T03:46:14;7.43;;;5.30;;
20454;SDS011;10386;54.314;10.022;2023-07-13T03:48:43;17.07;;;5.80;;
20454;SDS011;10386;54.314;10.022;2023-07-13T03:51:12;9.93;;;5.83;;
20454;SDS011;10386;54.314;10.022;2023-07-13T03:53:42;11.70;;;5.47;;
20454;SDS011;10386;54.314;10.022;2023-07-13T03:56:10;11.83;;;5.70;;
20454;SDS011;10386;54.314;10.022;2023-07-13T03:58:39;9.23;;;5.60;;
20454;SDS011;10386;54.314;10.022;2023-07-13T04:01:08;9.13;;;5.30;;
20454;SDS011;10386;54.314;10.022;2023-07-13T04:03:36;12.50;;;6.03;;
20454;SDS011;10386;54.314;10.022;2023-07-13T04:06:05;12.07;;;6.33;;
20454;SDS011;10386;54.314;10.022;2023-07-13T04:08:34;14.17;;;6.40;;
20454;SDS011;10386;54.314;10.022;2023-07-13T04:11:02;9.60;;;6.20;;
20454;SDS011;10386;54.314;10.022;2023-07-13T04:13:30;8.60;;;5.77;;
20454;SDS011;10386;54.314;10.022;2023-07-13T04:15:57;12.43;;;6.10;;
20454;SDS011;10386;54.314;10.022;2023-07-13T04:18:24;12.57;;;5.93;;
20454;SDS011;10386;54.314;10.022;2023-07-13T04:20:50;12.27;;;5.80;;
20454;SDS011;10386;54.314;10.022;2023-07-13T04:23:17;10.80;;;5.90;;
20454;SDS011;10386;54.314;10.022;2023-07-13T04:25:45;7.97;;;4.80;;
20454;SDS011;10386;54.314;10.022;2023-07-13T04:28:15;8.10;;;4.53;;
20454;SDS011;10386;54.314;10.022;2023-07-13T04:30:44;10.07;;;4.57;;
20454;SDS011;10386;54.314;10.022;2023-07-13T04:33:11;10.23;;;4.00;;
20454;SDS011;10386;54.314;10.022;2023-07-13T04:35:38;11.23;;;4.73;;
20454;SDS011;10386;54.314;10.022;2023-07-13T04:38:05;8.57;;;4.40;;
20454;SDS011;10386;54.314;10.022;2023-07-13T04:40:32;10.33;;;4.73;;
20454;SDS011;10386;54.314;10.022;2023-07-13T04:42:59;10.10;;;4.33;;
20454;SDS011;10386;54.314;10.022;2023-07-13T04:45:26;10.87;;;4.23;;
20454;SDS011;10386;54.314;10.022;2023-07-13T04:47:53;9.10;;;4.50;;
20454;SDS011;10386;54.314;10.022;2023-07-13T04:50:20;13.63;;;4.50;;
20454;SDS011;10386;54.314;10.022;2023-07-13T04:52:50;9.07;;;4.47;;
20454;SDS011;10386;54.314;10.022;2023-07-13T04:55:17;9.80;;;4.50;;
20454;SDS011;10386;54.314;10.022;2023-07-13T04:57:46;9.50;;;4.50;;
20454;SDS011;10386;54.314;10.022;2023-07-13T05:00:13;12.63;;;4.13;;
20454;SDS011;10386;54.314;10.022;2023-07-13T05:02:43;6.63;;;4.37;;
20454;SDS011;10386;54.314;10.022;2023-07-13T05:05:12;9.80;;;4.07;;
20454;SDS011;10386;54.314;10.022;2023-07-13T05:07:39;6.70;;;4.60;;
20454;SDS011;10386;54.314;10.022;2023-07-13T05:10:06;11.10;;;4.50;;
20454;SDS011;10386;54.314;10.022;2023-07-13T05:12:33;8.20;;;4.67;;
20454;SDS011;10386;54.314;10.022;2023-07-13T05:15:01;11.47;;;4.83;;
20454;SDS011;10386;54.314;10.022;2023-07-13T05:17:29;7.90;;;4.27;;
20454;SDS011;10386;54.314;10.022;2023-07-13T05:19:56;11.07;;;5.13;;
20454;SDS011;10386;54.314;10.022;2023-07-13T05:22:22;10.77;;;4.43;;
20454;SDS011;10386;54.314;10.022;2023-07-13T05:24:49;7.70;;;4.17;;
20454;SDS011;10386;54.314;10.022;2023-07-13T05:27:16;10.53;;;5.13;;
20454;SDS011;10386;54.314;10.022;2023-07-13T05:29:43;9.63;;;4.33;;
20454;SDS011;10386;54.314;10.022;2023-07-13T05:32:13;10.23;;;4.50;;
20454;SDS011;10386;54.314;10.022;2023-07-13T05:34:40;12.30;;;4.20;;
20454;SDS011;10386;54.314;10.022;2023-07-13T05:37:07;12.67;;;4.97;;
20454;SDS011;10386;54.314;10.022;2023-07-13T05:39:34;7.30;;;3.60;;
20454;SDS011;10386;54.314;10.022;2023-07-13T05:42:02;9.23;;;3.90;;
20454;SDS011;10386;54.314;10.022;2023-07-13T05:44:29;10.33;;;4.53;;
20454;SDS011;10386;54.314;10.022;2023-07-13T05:46:55;9.27;;;3.87;;
20454;SDS011;10386;54.314;10.022;2023-07-13T05:49:23;14.40;;;4.40;;
20454;SDS011;10386;54.314;10.022;2023-07-13T05:51:50;14.50;;;3.97;;
20454;SDS011;10386;54.314;10.022;2023-07-13T05:54:16;10.43;;;4.00;;
20454;SDS011;10386;54.314;10.022;2023-07-13T05:56:43;11.37;;;3.83;;
20454;SDS011;10386;54.314;10.022;2023-07-13T05:59:10;10.03;;;4.50;;
20454;SDS011;10386;54.314;10.022;2023-07-13T06:01:37;11.67;;;4.10;;
20454;SDS011;10386;54.314;10.022;2023-07-13T06:04:03;12.63;;;3.73;;
20454;SDS011;10386;54.314;10.022;2023-07-13T06:06:30;10.37;;;4.33;;
20454;SDS011;10386;54.314;10.022;2023-07-13T06:08:57;16.40;;;4.00;;
20454;SDS011;10386;54.314;10.022;2023-07-13T06:11:25;8.93;;;3.77;;
20454;SDS011;10386;54.314;10.022;2023-07-13T06:13:53;12.13;;;3.80;;
20454;SDS011;10386;54.314;10.022;2023-07-13T06:16:20;15.13;;;4.27;;
20454;SDS011;10386;54.314;10.022;2023-07-13T06:18:47;11.13;;;3.80;;
20454;SDS011;10386;54.314;10.022;2023-07-13T06:21:15;8.07;;;3.53;;
20454;SDS011;10386;54.314;10.022;2023-07-13T06:23:45;11.10;;;3.40;;
20454;SDS011;10386;54.314;10.022;2023-07-13T06:26:16;13.43;;;3.67;;
20454;SDS011;10386;54.314;10.022;2023-07-13T06:28:44;8.50;;;3.93;;
20454;SDS011;10386;54.314;10.022;2023-07-13T06:31:12;14.07;;;3.77;;
20454;SDS011;10386;54.314;10.022;2023-07-13T06:33:41;12.80;;;3.80;;
20454;SDS011;10386;54.314;10.022;2023-07-13T06:36:08;12.63;;;3.93;;
20454;SDS011;10386;54.314;10.022;2023-07-13T06:38:35;9.82;;;3.90;;
20454;SDS011;10386;54.314;10.022;2023-07-13T06:41:03;11.17;;;3.67;;
20454;SDS011;10386;54.314;10.022;2023-07-13T06:43:30;10.45;;;3.85;;
20454;SDS011;10386;54.314;10.022;2023-07-13T06:45:58;14.97;;;3.93;;
20454;SDS011;10386;54.314;10.022;2023-07-13T06:48:26;9.13;;;3.43;;
20454;SDS011;10386;54.314;10.022;2023-07-13T06:50:53;10.53;;;3.30;;
20454;SDS011;10386;54.314;10.022;2023-07-13T06:53:20;13.23;;;3.57;;
20454;SDS011;10386;54.314;10.022;2023-07-13T06:56:07;8.98;;;3.17;;
20454;SDS011;10386;54.314;10.022;2023-07-13T06:58:34;8.70;;;3.22;;
20454;SDS011;10386;54.314;10.022;2023-07-13T07:01:01;14.20;;;3.08;;
20454;SDS011;10386;54.314;10.022;2023-07-13T07:03:29;9.93;;;2.72;;
20454;SDS011;10386;54.314;10.022;2023-07-13T07:08:55;12.18;;;2.85;;
20454;SDS011;10386;54.314;10.022;2023-07-13T07:11:22;14.57;;;2.70;;
20454;SDS011;10386;54.314;10.022;2023-07-13T07:13:51;9.95;;;2.70;;
20454;SDS011;10386;54.314;10.022;2023-07-13T07:16:19;8.18;;;2.78;;
20454;SDS011;10386;54.314;10.022;2023-07-13T07:18:47;9.30;;;2.88;;
20454;SDS011;10386;54.314;10.022;2023-07-13T07:21:14;8.95;;;2.97;;
20454;SDS011;10386;54.314;10.022;2023-07-13T07:23:42;9.63;;;2.60;;
20454;SDS011;10386;54.314;10.022;2023-07-13T07:26:09;11.70;;;2.42;;
20454;SDS011;10386;54.314;10.022;2023-07-13T07:28:36;12.27;;;2.72;;
20454;SDS011;10386;54.314;10.022;2023-07-13T07:31:06;9.63;;;2.67;;
20454;SDS011;10386;54.314;10.022;2023-07-13T07:33:36;12.50;;;3.13;;
20454;SDS011;10386;54.314;10.022;2023-07-13T07:36:03;9.70;;;2.53;;
20454;SDS011;10386;54.314;10.022;2023-07-13T07:38:33;7.20;;;2.30;;
20454;SDS011;10386;54.314;10.022;2023-07-13T07:41:02;11.57;;;2.92;;
20454;SDS011;10386;54.314;10.022;2023-07-13T07:43:33;9.82;;;2.60;;
20454;SDS011;10386;54.314;10.022;2023-07-13T07:46:00;5.30;;;2.25;;
20454;SDS011;10386;54.314;10.022;2023-07-13T07:48:29;7.60;;;2.15;;
20454;SDS011;10386;54.314;10.022;2023-07-13T07:50:56;8.82;;;2.58;;
20454;SDS011;10386;54.314;10.022;2023-07-13T07:53:22;6.90;;;2.38;;
20454;SDS011;10386;54.314;10.022;2023-07-13T07:55:49;8.52;;;2.67;;
20454;SDS011;10386;54.314;10.022;2023-07-13T07:58:20;10.35;;;2.67;;
20454;SDS011;10386;54.314;10.022;2023-07-13T08:00:50;9.27;;;2.95;;
20454;SDS011;10386;54.314;10.022;2023-07-13T08:03:19;7.80;;;2.63;;
20454;SDS011;10386;54.314;10.022;2023-07-13T08:05:52;10.93;;;2.80;;
20454;SDS011;10386;54.314;10.022;2023-07-13T08:08:22;7.80;;;2.35;;
20454;SDS011;10386;54.314;10.022;2023-07-13T08:10:49;7.20;;;2.72;;
20454;SDS011;10386;54.314;10.022;2023-07-13T08:13:16;12.00;;;3.00;;
20454;SDS011;10386;54.314;10.022;2023-07-13T08:15:44;9.32;;;2.45;;
20454;SDS011;10386;54.314;10.022;2023-07-13T08:18:11;5.57;;;2.53;;
20454;SDS011;10386;54.314;10.022;2023-07-13T08:20:38;8.45;;;2.83;;
20454;SDS011;10386;54.314;10.022;2023-07-13T08:23:06;8.93;;;2.53;;
20454;SDS011;10386;54.314;10.022;2023-07-13T08:25:35;9.85;;;2.55;;
20454;SDS011;10386;54.314;10.022;2023-07-13T08:28:02;9.77;;;2.90;;
20454;SDS011;10386;54.314;10.022;2023-07-13T08:30:30;9.10;;;3.03;;
20454;SDS011;10386;54.314;10.022;2023-07-13T08:32:57;5.78;;;2.40;;
20454;SDS011;10386;54.314;10.022;2023-07-13T08:35:24;8.73;;;2.65;;
20454;SDS011;10386;54.314;10.022;2023-07-13T08:37:52;6.32;;;2.45;;
20454;SDS011;10386;54.314;10.022;2023-07-13T08:40:19;15.10;;;2.75;;
20454;SDS011;10386;54.314;10.022;2023-07-13T08:42:54;15.85;;;3.88;;
20454;SDS011;10386;54.314;10.022;2023-07-13T08:48:08;11.52;;;3.75;;
20454;SDS011;10386;54.314;10.022;2023-07-13T08:50:49;4.33;;;1.70;;
20454;SDS011;10386;54.314;10.022;2023-07-13T08:53:45;8.67;;;2.30;;
20454;SDS011;10386;54.314;10.022;2023-07-13T08:56:17;5.63;;;2.40;;
20454;SDS011;10386;54.314;10.022;2023-07-13T08:58:47;5.70;;;2.03;;
20454;SDS011;10386;54.314;10.022;2023-07-13T09:04:08;5.20;;;2.10;;
20454;SDS011;10386;54.314;10.022;2023-07-13T09:09:33;6.03;;;2.47;;
20454;SDS011;10386;54.314;10.022;2023-07-13T09:12:45;5.70;;;2.57;;
20454;SDS011;10386;54.314;10.022;2023-07-13T09:15:31;7.23;;;2.50;;
20454;SDS011;10386;54.314;10.022;2023-07-13T09:18:10;4.83;;;2.70;;
20454;SDS011;10386;54.314;10.022;2023-07-13T09:20:45;3.37;;;2.43;;
20454;SDS011;10386;54.314;10.022;2023-07-13T09:23:16;6.03;;;2.57;;
20454;SDS011;10386;54.314;10.022;2023-07-13T09:25:47;7.40;;;2.80;;
20454;SDS011;10386;54.314;10.022;2023-07-13T09:28:26;10.10;;;2.72;;
20454;SDS011;10386;54.314;10.022;2023-07-13T09:31:02;7.78;;;3.00;;
20454;SDS011;10386;54.314;10.022;2023-07-13T09:33:50;8.25;;;2.95;;
20454;SDS011;10386;54.314;10.022;2023-07-13T09:36:19;4.28;;;2.38;;
20454;SDS011;10386;54.314;10.022;2023-07-13T09:38:46;5.78;;;2.53;;
20454;SDS011;10386;54.314;10.022;2023-07-13T09:41:27;6.18;;;2.35;;
20454;SDS011;10386;54.314;10.022;2023-07-13T09:46:40;6.65;;;2.95;;
20454;SDS011;10386;54.314;10.022;2023-07-13T09:49:18;6.60;;;2.40;;
20454;SDS011;10386;54.314;10.022;2023-07-13T09:51:49;8.80;;;2.30;;
20454;SDS011;10386;54.314;10.022;2023-07-13T09:54:24;8.52;;;2.95;;
20454;SDS011;10386;54.314;10.022;2023-07-13T09:56:58;5.88;;;2.58;;
20454;SDS011;10386;54.314;10.022;2023-07-13T09:59:31;6.50;;;2.70;;
20454;SDS011;10386;54.314;10.022;2023-07-13T10:02:08;8.27;;;2.50;;
20454;SDS011;10386;54.314;10.022;2023-07-13T10:05:13;7.70;;;2.10;;
20454;SDS011;10386;54.314;10.022;2023-07-13T10:07:43;7.43;;;2.85;;
20454;SDS011;10386;54.314;10.022;2023-07-13T10:10:15;5.50;;;2.63;;
20454;SDS011;10386;54.314;10.022;2023-07-13T10:12:44;6.55;;;2.72;;
20454;SDS011;10386;54.314;10.022;2023-07-13T10:15:18;10.57;;;3.10;;
20454;SDS011;10386;54.314;10.022;2023-07-13T10:17:51;8.85;;;2.70;;
20454;SDS011;10386;54.314;10.022;2023-07-13T10:20:19;5.43;;;2.88;;
20454;SDS011;10386;54.314;10.022;2023-07-13T10:25:22;7.30;;;2.20;;
20454;SDS011;10386;54.314;10.022;2023-07-13T10:27:52;4.55;;;1.55;;
20454;SDS011;10386;54.314;10.022;2023-07-13T10:30:24;6.57;;;1.83;;
20454;SDS011;10386;54.314;10.022;2023-07-13T10:32:57;2.25;;;1.48;;
20454;SDS011;10386;54.314;10.022;2023-07-13T10:35:25;3.90;;;1.30;;
20454;SDS011;10386;54.314;10.022;2023-07-13T10:38:01;1.67;;;1.35;;
20454;SDS011;10386;54.314;10.022;2023-07-13T10:43:51;2.42;;;1.40;;
20454;SDS011;10386;54.314;10.022;2023-07-13T10:46:05;8.25;;;1.52;;
20454;SDS011;10386;54.314;10.022;2023-07-13T10:48:34;3.15;;;1.20;;
20454;SDS011;10386;54.314;10.022;2023-07-13T10:51:03;1.38;;;1.27;;
20454;SDS011;10386;54.314;10.022;2023-07-13T10:53:34;1.90;;;1.13;;
20454;SDS011;10386;54.314;10.022;2023-07-13T10:56:03;1.55;;;1.13;;
20454;SDS011;10386;54.314;10.022;2023-07-13T10:58:39;3.25;;;1.23;;
20454;SDS011;10386;54.314;10.022;2023-07-13T11:06:39;3.67;;;1.30;;
20454;SDS011;10386;54.314;10.022;2023-07-13T11:09:18;2.85;;;1.50;;
20454;SDS011;10386;54.314;10.022;2023-07-13T11:11:45;2.65;;;1.08;;
20454;SDS011;10386;54.314;10.022;2023-07-13T11:17:47;2.00;;;1.50;;
20454;SDS011;10386;54.314;10.022;2023-07-13T11:20:09;3.20;;;1.58;;
20454;SDS011;10386;54.314;10.022;2023-07-13T11:25:33;6.32;;;1.30;;
20454;SDS011;10386;54.314;10.022;2023-07-13T11:28:06;6.78;;;1.65;;
20454;SDS011;10386;54.314;10.022;2023-07-13T11:33:22;5.07;;;1.55;;
20454;SDS011;10386;54.314;10.022;2023-07-13T11:35:52;2.67;;;1.35;;
20454;SDS011;10386;54.314;10.022;2023-07-13T11:38:40;4.75;;;1.27;;
20454;SDS011;10386;54.314;10.022;2023-07-13T11:41:16;5.15;;;1.15;;
20454;SDS011;10386;54.314;10.022;2023-07-13T11:43:48;5.45;;;1.48;;
20454;SDS011;10386;54.314;10.022;2023-07-13T11:46:23;5.53;;;1.30;;
20454;SDS011;10386;54.314;10.022;2023-07-13T11:48:52;6.72;;;1.40;;
20454;SDS011;10386;54.314;10.022;2023-07-13T11:51:26;6.13;;;1.23;;
20454;SDS011;10386;54.314;10.022;2023-07-13T11:53:58;5.90;;;1.35;;
20454;SDS011;10386;54.314;10.022;2023-07-13T11:56:30;4.10;;;1.40;;
20454;SDS011;10386;54.314;10.022;2023-07-13T11:59:04;4.95;;;1.15;;
20454;SDS011;10386;54.314;10.022;2023-07-13T12:01:33;2.50;;;1.15;;
20454;SDS011;10386;54.314;10.022;2023-07-13T12:04:08;4.45;;;1.45;;
20454;SDS011;10386;54.314;10.022;2023-07-13T12:07:24;2.13;;;1.00;;
20454;SDS011;10386;54.314;10.022;2023-07-13T12:09:44;5.43;;;1.33;;
20454;SDS011;10386;54.314;10.022;2023-07-13T12:12:12;3.78;;;1.33;;
20454;SDS011;10386;54.314;10.022;2023-07-13T12:14:40;5.13;;;1.33;;
20454;SDS011;10386;54.314;10.022;2023-07-13T12:17:09;2.08;;;1.08;;
20454;SDS011;10386;54.314;10.022;2023-07-13T12:19:42;2.67;;;1.05;;
20454;SDS011;10386;54.314;10.022;2023-07-13T12:22:09;4.72;;;1.20;;
20454;SDS011;10386;54.314;10.022;2023-07-13T12:24:40;4.88;;;1.30;;
20454;SDS011;10386;54.314;10.022;2023-07-13T12:27:21;3.40;;;1.10;;
20454;SDS011;10386;54.314;10.022;2023-07-13T12:30:37;3.65;;;1.35;;
20454;SDS011;10386;54.314;10.022;2023-07-13T12:35:29;3.45;;;0.98;;
20454;SDS011;10386;54.314;10.022;2023-07-13T12:37:57;3.05;;;0.95;;
20454;SDS011;10386;54.314;10.022;2023-07-13T12:40:33;2.25;;;1.25;;
20454;SDS011;10386;54.314;10.022;2023-07-13T12:43:03;3.03;;;1.08;;
20454;SDS011;10386;54.314;10.022;2023-07-13T12:45:33;2.20;;;0.93;;
20454;SDS011;10386;54.314;10.022;2023-07-13T12:48:11;5.00;;;1.42;;
20454;SDS011;10386;54.314;10.022;2023-07-13T12:50:42;4.30;;;1.20;;
20454;SDS011;10386;54.314;10.022;2023-07-13T12:53:15;3.70;;;1.08;;
20454;SDS011;10386;54.314;10.022;2023-07-13T12:55:55;3.40;;;1.30;;
20454;SDS011;10386;54.314;10.022;2023-07-13T13:00:59;2.75;;;1.40;;
20454;SDS011;10386;54.314;10.022;2023-07-13T13:03:38;4.22;;;1.23;;
20454;SDS011;10386;54.314;10.022;2023-07-13T13:08:48;5.50;;;1.05;;
20454;SDS011;10386;54.314;10.022;2023-07-13T13:11:17;2.65;;;1.10;;
20454;SDS011;10386;54.314;10.022;2023-07-13T13:13:45;2.88;;;1.10;;
20454;SDS011;10386;54.314;10.022;2023-07-13T13:16:22;4.20;;;0.90;;
20454;SDS011;10386;54.314;10.022;2023-07-13T13:18:51;2.03;;;0.98;;
20454;SDS011;10386;54.314;10.022;2023-07-13T13:21:20;2.85;;;1.10;;
20454;SDS011;10386;54.314;10.022;2023-07-13T13:23:47;0.80;;;0.75;;
20454;SDS011;10386;54.314;10.022;2023-07-13T13:26:14;3.28;;;1.00;;
20454;SDS011;10386;54.314;10.022;2023-07-13T13:28:45;5.15;;;1.13;;
20454;SDS011;10386;54.314;10.022;2023-07-13T13:31:14;4.50;;;1.30;;
20454;SDS011;10386;54.314;10.022;2023-07-13T13:33:42;6.18;;;1.50;;
20454;SDS011;10386;54.314;10.022;2023-07-13T13:36:13;4.45;;;1.55;;
20454;SDS011;10386;54.314;10.022;2023-07-13T13:38:41;6.63;;;1.35;;
20454;SDS011;10386;54.314;10.022;2023-07-13T13:41:09;2.10;;;1.10;;
20454;SDS011;10386;54.314;10.022;2023-07-13T13:43:40;6.38;;;1.67;;
20454;SDS011;10386;54.314;10.022;2023-07-13T13:46:16;1.63;;;1.30;;
20454;SDS011;10386;54.314;10.022;2023-07-13T13:48:45;8.90;;;1.50;;
20454;SDS011;10386;54.314;10.022;2023-07-13T13:51:13;3.75;;;1.20;;
20454;SDS011;10386;54.314;10.022;2023-07-13T13:53:41;7.80;;;1.20;;
20454;SDS011;10386;54.314;10.022;2023-07-13T13:56:08;4.25;;;1.40;;
20454;SDS011;10386;54.314;10.022;2023-07-13T13:58:35;5.18;;;1.40;;
20454;SDS011;10386;54.314;10.022;2023-07-13T14:01:02;4.40;;;1.50;;
20454;SDS011;10386;54.314;10.022;2023-07-13T14:03:29;4.65;;;1.73;;
20454;SDS011;10386;54.314;10.022;2023-07-13T14:05:58;4.65;;;1.40;;
20454;SDS011;10386;54.314;10.022;2023-07-13T14:08:25;4.05;;;1.30;;
20454;SDS011;10386;54.314;10.022;2023-07-13T14:10:53;3.22;;;1.40;;
20454;SDS011;10386;54.314;10.022;2023-07-13T14:13:35;4.55;;;1.60;;
20454;SDS011;10386;54.314;10.022;2023-07-13T14:16:10;3.63;;;1.20;;
20454;SDS011;10386;54.314;10.022;2023-07-13T14:18:39;6.30;;;1.30;;
20454;SDS011;10386;54.314;10.022;2023-07-13T14:21:40;4.43;;;1.48;;
20454;SDS011;10386;54.314;10.022;2023-07-13T14:23:59;5.18;;;1.30;;
20454;SDS011;10386;54.314;10.022;2023-07-13T14:26:26;1.77;;;1.25;;
20454;SDS011;10386;54.314;10.022;2023-07-13T14:28:54;5.50;;;1.63;;
20454;SDS011;10386;54.314;10.022;2023-07-13T14:31:23;7.32;;;1.65;;
20454;SDS011;10386;54.314;10.022;2023-07-13T14:33:56;7.05;;;1.58;;
20454;SDS011;10386;54.314;10.022;2023-07-13T14:39:01;3.53;;;1.08;;
20454;SDS011;10386;54.314;10.022;2023-07-13T14:41:38;5.78;;;1.58;;
20454;SDS011;10386;54.314;10.022;2023-07-13T14:44:12;9.30;;;1.85;;
20454;SDS011;10386;54.314;10.022;2023-07-13T14:46:40;2.97;;;1.20;;
20454;SDS011;10386;54.314;10.022;2023-07-13T14:49:14;4.82;;;1.40;;
20454;SDS011;10386;54.314;10.022;2023-07-13T14:51:48;5.13;;;1.67;;
20454;SDS011;10386;54.314;10.022;2023-07-13T14:54:15;3.63;;;1.48;;
20454;SDS011;10386;54.314;10.022;2023-07-13T14:56:42;5.85;;;1.45;;
20454;SDS011;10386;54.314;10.022;2023-07-13T14:59:09;3.53;;;1.40;;
20454;SDS011;10386;54.314;10.022;2023-07-13T15:01:36;4.15;;;1.45;;
20454;SDS011;10386;54.314;10.022;2023-07-13T15:04:04;3.70;;;1.48;;
20454;SDS011;10386;54.314;10.022;2023-07-13T15:06:35;2.65;;;1.02;;
20454;SDS011;10386;54.314;10.022;2023-07-13T15:09:19;6.43;;;1.50;;
20454;SDS011;10386;54.314;10.022;2023-07-13T15:11:46;5.93;;;1.52;;
20454;SDS011;10386;54.314;10.022;2023-07-13T15:14:12;5.50;;;1.42;;
20454;SDS011;10386;54.314;10.022;2023-07-13T15:16:39;6.93;;;1.60;;
20454;SDS011;10386;54.314;10.022;2023-07-13T15:19:08;3.28;;;1.48;;
20454;SDS011;10386;54.314;10.022;2023-07-13T15:21:36;6.05;;;1.55;;
20454;SDS011;10386;54.314;10.022;2023-07-13T15:24:03;3.28;;;1.30;;
20454;SDS011;10386;54.314;10.022;2023-07-13T15:26:32;6.22;;;1.35;;
20454;SDS011;10386;54.314;10.022;2023-07-13T15:28:59;6.50;;;1.58;;
20454;SDS011;10386;54.314;10.022;2023-07-13T15:31:27;5.68;;;1.50;;
20454;SDS011;10386;54.314;10.022;2023-07-13T15:33:55;4.00;;;1.20;;